St George Municipal Airport
KSGU : now visible

Airfield :











YOU CAN JOIN US ON...

 
LOGIN :

Register | Disclaimer

   EN    FR    IT 

 









Legend :    VFR   Marginal VFR   IFR   Intensive IFR   Very Intensive IFR
Visi :
Ceiling :
>= 8 km
>= 3000ft
5 to 8 km
1000 to 3000 ft
1500m to 5 km
500 to 1000 ft
800 to 1500m
200 to 500 ft
< 800m
< 200 ft
Symbols :   Thunderstorms  Fog  Heavy snow  Heavy precipitations  Wind > 20 kt






- Airport Elevation : 2941 ft


KSGU - St George Municipal

CURRENT METAR :
  • 110456Z AUTO 14003KT 10SM CLR 04/02 A3029 RMK AO2 SLP263 T00440017 PNO $

EXPIRED METARs :
  • 110356Z AUTO 14004KT 10SM CLR 04/02 A3029 RMK AO2 SLP266 T00440017 PNO $
  • 110256Z AUTO 00000KT 10SM CLR 06/02 A3028 RMK AO2 SLP264 6//// T00610022 53005 PNO $

TAF KSGU
Valid from the 11 at 00:00 until the 12 at 00:00 UTC


102320Z 1100/1124 VRB03KT P6SM SCT200
FM111500 VRB03KT P6SM SCT100 BKN120
FM112000 24003KT P6SM SCT100 SCT200



MET'MAP, your aeronautical weather chart ! - Copyright ORBIFLY December 2007 - Disclaimer

ORBIFLY MET'MAP TEAM :

Programming & Development : Alexandra Zaïnal
Concept & original design : Baudouin d'Aumeries
Assistance for programming : Marc-Olivier Méhu
Technical & hardware support : Manuel Goepfert

Contact : metmap@orbifly.com




SOURCES & CREDITS :

   NOAA       Earth
Advisory